createdAt,value
2023-12-31T00:01:00.340Z,3.79
2023-12-31T00:06:26.141Z,4.57
2023-12-31T00:11:30.264Z,3.85
2023-12-31T00:16:35.034Z,3.42
2023-12-31T00:21:45.180Z,3.21
2023-12-31T00:26:50.031Z,5.03
2023-12-31T00:31:54.665Z,4.77
2023-12-31T00:37:00.614Z,4.13
2023-12-31T00:42:06.210Z,4.82
2023-12-31T00:47:10.829Z,5.07
2023-12-31T00:52:16.927Z,4.88
2023-12-31T00:57:21.767Z,4.53
2023-12-31T01:02:26.133Z,5.12
2023-12-31T01:07:32.069Z,4.07
2023-12-31T01:12:36.687Z,3.74
2023-12-31T01:17:41.294Z,4.21
2023-12-31T01:22:47.404Z,5.07
2023-12-31T01:27:55.068Z,5.21
2023-12-31T01:33:00.553Z,5.44
2023-12-31T01:38:06.865Z,6.25
2023-12-31T01:43:11.665Z,6.10
2023-12-31T01:48:17.356Z,5.55
2023-12-31T01:53:23.388Z,6.18
2023-12-31T01:58:28.316Z,5.54
2023-12-31T02:03:33.385Z,6.00
2023-12-31T02:08:39.933Z,6.64
2023-12-31T02:13:45.369Z,6.84
2023-12-31T02:18:50.325Z,6.73
2023-12-31T02:23:56.667Z,7.28
2023-12-31T02:29:02.678Z,7.36
2023-12-31T02:34:08.157Z,7.79
2023-12-31T02:39:13.011Z,7.94
2023-12-31T02:44:19.702Z,7.44
2023-12-31T02:49:25.516Z,7.59
2023-12-31T02:54:30.172Z,6.45
2023-12-31T02:59:36.280Z,7.14
2023-12-31T03:04:42.112Z,7.54
2023-12-31T03:09:47.321Z,6.99
2023-12-31T03:14:53.288Z,6.94
2023-12-31T03:19:58.721Z,6.44
2023-12-31T03:25:03.290Z,6.42
2023-12-31T03:30:10.220Z,6.18
2023-12-31T03:35:15.025Z,5.14
2023-12-31T03:40:20.602Z,5.92
2023-12-31T03:45:26.412Z,5.80
2023-12-31T03:50:30.635Z,5.90
2023-12-31T03:55:35.134Z,5.11
2023-12-31T04:00:41.195Z,4.94
2023-12-31T04:05:45.773Z,4.97
2023-12-31T04:10:50.460Z,5.04
2023-12-31T04:15:56.690Z,4.37
2023-12-31T04:21:03.795Z,4.79
2023-12-31T04:26:08.597Z,3.54
2023-12-31T04:31:14.517Z,4.17
2023-12-31T04:36:19.032Z,4.12
2023-12-31T04:41:25.677Z,3.74
2023-12-31T04:46:31.685Z,3.23
2023-12-31T04:51:36.208Z,3.19
2023-12-31T04:56:40.737Z,4.12
2023-12-31T05:01:47.045Z,3.26
2023-12-31T05:06:51.825Z,3.12
2023-12-31T05:11:56.287Z,3.39
2023-12-31T05:17:02.432Z,3.28
2023-12-31T05:22:07.018Z,3.62
2023-12-31T05:27:12.971Z,3.25
2023-12-31T05:32:19.578Z,3.49
2023-12-31T05:37:24.702Z,3.14
2023-12-31T05:42:29.903Z,3.53
2023-12-31T05:47:45.867Z,3.66
2023-12-31T05:52:54.394Z,3.74
2023-12-31T05:58:00.432Z,3.72
2023-12-31T06:03:07.226Z,2.88
2023-12-31T06:08:13.355Z,2.87
2023-12-31T06:13:17.705Z,3.02
2023-12-31T06:18:23.552Z,2.98
2023-12-31T06:23:28.221Z,3.22
2023-12-31T06:28:32.731Z,3.65
2023-12-31T06:33:38.882Z,4.11
2023-12-31T06:38:43.417Z,4.31
2023-12-31T06:43:48.054Z,3.60
2023-12-31T06:48:54.151Z,3.06
2023-12-31T06:53:59.573Z,2.82
2023-12-31T06:59:04.247Z,3.79
2023-12-31T07:04:09.985Z,3.89
2023-12-31T07:09:14.342Z,4.01
2023-12-31T07:14:18.862Z,4.34
2023-12-31T07:19:24.874Z,4.75
2023-12-31T07:24:29.304Z,4.07
2023-12-31T07:29:33.799Z,4.06
2023-12-31T07:34:39.744Z,4.54
2023-12-31T07:39:43.773Z,5.12
2023-12-31T07:44:48.309Z,5.10
2023-12-31T07:49:54.323Z,5.41
2023-12-31T07:54:58.505Z,4.46
2023-12-31T08:00:03.333Z,5.05
2023-12-31T08:05:17.780Z,4.77
2023-12-31T08:10:22.278Z,4.36
2023-12-31T08:15:26.842Z,4.74
2023-12-31T08:20:34.787Z,4.08
2023-12-31T08:25:39.350Z,4.40
2023-12-31T08:30:48.315Z,4.97
2023-12-31T08:35:54.545Z,5.55
2023-12-31T08:41:16.473Z,5.77
2023-12-31T08:46:22.262Z,5.25
2023-12-31T08:51:29.623Z,5.56
2023-12-31T08:56:34.198Z,5.61
2023-12-31T09:01:39.050Z,4.67
2023-12-31T09:06:46.305Z,5.09
2023-12-31T09:19:33.293Z,6.44
2023-12-31T11:10:16.162Z,7.89
2023-12-31T11:36:12.594Z,8.75
2023-12-31T11:41:46.617Z,8.62
2023-12-31T11:46:55.917Z,8.96
2023-12-31T11:52:11.401Z,9.10
2023-12-31T11:57:23.916Z,9.65
2023-12-31T12:02:39.538Z,9.46
2023-12-31T12:08:06.507Z,9.87
2023-12-31T12:13:24.362Z,9.24
2023-12-31T12:23:51.357Z,9.53
2023-12-31T12:44:02.829Z,9.39
2023-12-31T12:49:28.735Z,9.56
2023-12-31T12:54:45.051Z,9.01
2023-12-31T12:59:59.321Z,9.57
2023-12-31T13:05:04.272Z,9.35
2023-12-31T13:10:11.375Z,9.57
2023-12-31T13:15:25.574Z,9.52
2023-12-31T13:20:31.214Z,9.33
2023-12-31T13:25:36.112Z,9.64
2023-12-31T13:31:12.249Z,9.53
2023-12-31T13:36:17.146Z,8.96
2023-12-31T13:41:31.338Z,9.78
2023-12-31T14:01:24.610Z,9.77
2023-12-31T14:06:29.729Z,9.98
2023-12-31T14:11:37.917Z,9.77
2023-12-31T14:17:04.306Z,9.08
2023-12-31T14:22:34.003Z,7.87
2023-12-31T14:27:45.620Z,7.39
2023-12-31T14:32:53.478Z,6.81
2023-12-31T14:37:59.480Z,6.32
2023-12-31T14:43:07.958Z,7.56
2023-12-31T14:48:14.151Z,6.30
2023-12-31T16:11:54.465Z,7.53
2023-12-31T16:17:03.066Z,7.84
2023-12-31T16:22:09.253Z,7.40
2023-12-31T16:27:36.233Z,7.84
2023-12-31T16:33:54.667Z,7.50
2023-12-31T16:39:25.484Z,7.69
2023-12-31T16:45:08.883Z,7.21
2023-12-31T16:50:48.834Z,7.17
2023-12-31T17:14:06.511Z,6.74
2023-12-31T17:19:20.390Z,7.08
2023-12-31T17:24:28.528Z,7.98
2023-12-31T17:29:39.960Z,8.33
2023-12-31T17:41:27.552Z,8.95
2023-12-31T18:00:30.822Z,9.14
2023-12-31T18:11:45.976Z,9.12
2023-12-31T18:17:03.106Z,9.31
2023-12-31T18:23:25.770Z,8.85
2023-12-31T18:28:33.228Z,9.10
2023-12-31T18:33:39.686Z,8.29
2023-12-31T19:29:40.133Z,7.14
2023-12-31T19:42:48.465Z,7.29
2023-12-31T19:59:52.222Z,7.74
2023-12-31T20:05:55.052Z,8.09
2023-12-31T20:11:58.514Z,8.00
2023-12-31T20:17:47.094Z,8.15
2023-12-31T20:30:08.062Z,8.36
2023-12-31T20:35:17.515Z,8.23
2023-12-31T20:43:32.374Z,7.79
2023-12-31T20:48:50.071Z,8.74
2023-12-31T20:54:21.857Z,8.82
2023-12-31T21:00:01.440Z,8.90
2023-12-31T21:05:11.910Z,9.32
2023-12-31T21:23:41.419Z,8.27
2023-12-31T21:29:00.965Z,8.82
2023-12-31T21:34:14.790Z,9.13
2023-12-31T21:39:19.724Z,8.93
2023-12-31T21:44:28.273Z,8.97
2023-12-31T21:49:33.134Z,8.46
2023-12-31T21:54:38.043Z,8.71
2023-12-31T21:59:44.362Z,9.19
2023-12-31T22:04:49.942Z,8.58
2023-12-31T22:10:01.894Z,8.70
2023-12-31T22:15:09.568Z,8.85
2023-12-31T22:20:18.088Z,8.90
2023-12-31T22:25:23.340Z,8.66
2023-12-31T22:30:30.006Z,8.21
2023-12-31T22:35:34.670Z,8.25
2023-12-31T22:40:42.002Z,8.03
2023-12-31T22:45:48.462Z,7.81
2023-12-31T22:50:53.330Z,7.86
2023-12-31T22:55:59.040Z,7.69
2023-12-31T23:01:05.295Z,7.58
2023-12-31T23:06:13.943Z,8.01
2023-12-31T23:11:18.796Z,8.25
2023-12-31T23:16:25.153Z,8.17
2023-12-31T23:21:51.005Z,8.03
2023-12-31T23:26:56.000Z,7.56
2023-12-31T23:32:02.108Z,7.76
2023-12-31T23:37:09.521Z,7.98
2023-12-31T23:42:16.013Z,7.29
2023-12-31T23:47:23.249Z,7.83
2023-12-31T23:52:29.975Z,8.14
2023-12-31T23:57:38.205Z,8.38
